Terminal Aerodrome Forecast
Issued by NWS

Home | Current Version | Previous Version | Text Only | Print | Product List | Glossary On
Versions: 1 2 3 4 5 6 7 8 9 10 11 12 13 14
685
FTUS46 KMTR 281737
TAFOAK
TAF
KOAK 281737Z 2818/2924 29008KT P6SM FEW009 FEW200
     FM282100 30014KT P6SM FEW010 FEW200
     FM290300 29010KT P6SM FEW200
     FM290600 31008KT P6SM FEW010 FEW200
     FM290800 32006KT P6SM SCT008
     FM291100 32005KT P6SM OVC006
     FM291700 31005KT P6SM FEW008
     FM292100 31011KT P6SM FEW010=

USA.gov is the U.S. government's official web portal to all federal, state and local government web resources and services.